sensor_id;sensor_type;location;lat;lon;timestamp;P1;durP1;ratioP1;P2;durP2;ratioP2
39214;SDS011;24932;51.746;14.334;2023-01-23T00:00:40;116.0;;;32.97;;
39214;SDS011;24932;51.746;14.334;2023-01-23T00:04:41;104.67;;;29.4;;
39214;SDS011;24932;51.746;14.334;2023-01-23T00:08:40;110.97;;;31.27;;
39214;SDS011;24932;51.746;14.334;2023-01-23T00:12:40;92.87;;;29.6;;
39214;SDS011;24932;51.746;14.334;2023-01-23T00:16:40;92.83;;;30.13;;
39214;SDS011;24932;51.746;14.334;2023-01-23T00:20:40;103.7;;;32.23;;
39214;SDS011;24932;51.746;14.334;2023-01-23T00:24:40;102.13;;;31.87;;
39214;SDS011;24932;51.746;14.334;2023-01-23T00:28:40;95.87;;;29.1;;
39214;SDS011;24932;51.746;14.334;2023-01-23T00:32:40;95.53;;;29.8;;
39214;SDS011;24932;51.746;14.334;2023-01-23T00:36:41;82.4;;;28.1;;
39214;SDS011;24932;51.746;14.334;2023-01-23T00:40:40;99.93;;;29.17;;
39214;SDS011;24932;51.746;14.334;2023-01-23T00:44:40;94.73;;;29.4;;
39214;SDS011;24932;51.746;14.334;2023-01-23T00:48:40;93.7;;;29.8;;
39214;SDS011;24932;51.746;14.334;2023-01-23T00:52:40;105.47;;;31.33;;
39214;SDS011;24932;51.746;14.334;2023-01-23T00:56:40;100.23;;;30.87;;
39214;SDS011;24932;51.746;14.334;2023-01-23T01:00:40;92.03;;;27.97;;
39214;SDS011;24932;51.746;14.334;2023-01-23T01:04:40;103.27;;;30.7;;
39214;SDS011;24932;51.746;14.334;2023-01-23T01:08:40;89.9;;;30.47;;
39214;SDS011;24932;51.746;14.334;2023-01-23T01:12:40;94.2;;;29.67;;
39214;SDS011;24932;51.746;14.334;2023-01-23T01:16:40;86.77;;;28.33;;
39214;SDS011;24932;51.746;14.334;2023-01-23T01:20:40;81.87;;;27.17;;
39214;SDS011;24932;51.746;14.334;2023-01-23T01:24:40;108.77;;;30.3;;
39214;SDS011;24932;51.746;14.334;2023-01-23T01:28:40;91.37;;;29.47;;
39214;SDS011;24932;51.746;14.334;2023-01-23T01:32:40;99.3;;;33.1;;
39214;SDS011;24932;51.746;14.334;2023-01-23T01:36:40;106.3;;;33.47;;
39214;SDS011;24932;51.746;14.334;2023-01-23T01:40:40;100.17;;;32.13;;
39214;SDS011;24932;51.746;14.334;2023-01-23T01:44:50;104.67;;;33.67;;
39214;SDS011;24932;51.746;14.334;2023-01-23T01:48:42;109.93;;;32.73;;
39214;SDS011;24932;51.746;14.334;2023-01-23T01:52:40;110.3;;;33.17;;
39214;SDS011;24932;51.746;14.334;2023-01-23T01:56:42;105.53;;;31.37;;
39214;SDS011;24932;51.746;14.334;2023-01-23T02:00:40;121.8;;;34.47;;
39214;SDS011;24932;51.746;14.334;2023-01-23T02:04:41;114.8;;;34.5;;
39214;SDS011;24932;51.746;14.334;2023-01-23T02:08:42;106.03;;;34.17;;
39214;SDS011;24932;51.746;14.334;2023-01-23T02:12:43;109.8;;;32.77;;
39214;SDS011;24932;51.746;14.334;2023-01-23T02:16:40;114.67;;;34.0;;
39214;SDS011;24932;51.746;14.334;2023-01-23T02:20:41;106.2;;;34.07;;
39214;SDS011;24932;51.746;14.334;2023-01-23T02:24:41;104.33;;;33.33;;
39214;SDS011;24932;51.746;14.334;2023-01-23T02:28:41;116.63;;;34.5;;
39214;SDS011;24932;51.746;14.334;2023-01-23T02:32:40;106.97;;;33.43;;
39214;SDS011;24932;51.746;14.334;2023-01-23T02:36:40;110.3;;;31.87;;
39214;SDS011;24932;51.746;14.334;2023-01-23T02:40:41;101.5;;;32.3;;
39214;SDS011;24932;51.746;14.334;2023-01-23T02:44:40;106.33;;;30.63;;
39214;SDS011;24932;51.746;14.334;2023-01-23T02:48:40;101.03;;;33.1;;
39214;SDS011;24932;51.746;14.334;2023-01-23T02:52:40;122.77;;;34.13;;
39214;SDS011;24932;51.746;14.334;2023-01-23T02:56:40;98.07;;;33.47;;
39214;SDS011;24932;51.746;14.334;2023-01-23T03:00:41;122.1;;;34.4;;
39214;SDS011;24932;51.746;14.334;2023-01-23T03:04:40;96.97;;;30.63;;
39214;SDS011;24932;51.746;14.334;2023-01-23T03:08:40;94.2;;;32.8;;
39214;SDS011;24932;51.746;14.334;2023-01-23T03:12:39;101.83;;;32.1;;
39214;SDS011;24932;51.746;14.334;2023-01-23T03:16:40;116.67;;;33.23;;
39214;SDS011;24932;51.746;14.334;2023-01-23T03:20:40;105.5;;;32.0;;
39214;SDS011;24932;51.746;14.334;2023-01-23T03:24:40;118.33;;;33.07;;
39214;SDS011;24932;51.746;14.334;2023-01-23T03:28:40;110.77;;;34.97;;
39214;SDS011;24932;51.746;14.334;2023-01-23T03:32:40;106.3;;;32.67;;
39214;SDS011;24932;51.746;14.334;2023-01-23T03:36:40;122.57;;;34.8;;
39214;SDS011;24932;51.746;14.334;2023-01-23T03:40:40;114.07;;;32.7;;
39214;SDS011;24932;51.746;14.334;2023-01-23T03:44:40;112.2;;;33.6;;
39214;SDS011;24932;51.746;14.334;2023-01-23T03:48:40;119.43;;;34.17;;
39214;SDS011;24932;51.746;14.334;2023-01-23T03:52:40;113.17;;;34.4;;
39214;SDS011;24932;51.746;14.334;2023-01-23T03:56:40;137.17;;;34.5;;
39214;SDS011;24932;51.746;14.334;2023-01-23T04:00:40;107.13;;;31.6;;
39214;SDS011;24932;51.746;14.334;2023-01-23T04:04:40;112.93;;;33.87;;
39214;SDS011;24932;51.746;14.334;2023-01-23T04:08:41;107.57;;;31.4;;
39214;SDS011;24932;51.746;14.334;2023-01-23T04:12:41;110.73;;;33.93;;
39214;SDS011;24932;51.746;14.334;2023-01-23T04:16:40;107.1;;;33.37;;
39214;SDS011;24932;51.746;14.334;2023-01-23T04:20:41;123.57;;;34.4;;
39214;SDS011;24932;51.746;14.334;2023-01-23T04:24:40;129.3;;;35.23;;
39214;SDS011;24932;51.746;14.334;2023-01-23T04:28:40;131.9;;;34.2;;
39214;SDS011;24932;51.746;14.334;2023-01-23T04:32:40;125.4;;;30.73;;
39214;SDS011;24932;51.746;14.334;2023-01-23T04:36:40;133.73;;;35.23;;
39214;SDS011;24932;51.746;14.334;2023-01-23T04:40:40;155.43;;;36.67;;
39214;SDS011;24932;51.746;14.334;2023-01-23T04:44:40;133.9;;;34.77;;
39214;SDS011;24932;51.746;14.334;2023-01-23T04:48:40;140.3;;;33.7;;
39214;SDS011;24932;51.746;14.334;2023-01-23T04:52:40;142.1;;;35.57;;
39214;SDS011;24932;51.746;14.334;2023-01-23T04:56:40;140.97;;;34.1;;
39214;SDS011;24932;51.746;14.334;2023-01-23T05:00:40;113.47;;;32.53;;
39214;SDS011;24932;51.746;14.334;2023-01-23T05:04:40;114.8;;;32.0;;
39214;SDS011;24932;51.746;14.334;2023-01-23T05:08:41;130.8;;;35.87;;
39214;SDS011;24932;51.746;14.334;2023-01-23T05:12:41;145.43;;;35.83;;
39214;SDS011;24932;51.746;14.334;2023-01-23T05:16:41;134.1;;;35.93;;
39214;SDS011;24932;51.746;14.334;2023-01-23T05:20:40;146.2;;;39.3;;
39214;SDS011;24932;51.746;14.334;2023-01-23T05:24:40;133.2;;;34.77;;
39214;SDS011;24932;51.746;14.334;2023-01-23T05:28:40;130.77;;;33.77;;
39214;SDS011;24932;51.746;14.334;2023-01-23T05:32:41;118.3;;;35.43;;
39214;SDS011;24932;51.746;14.334;2023-01-23T05:36:40;116.83;;;34.33;;
39214;SDS011;24932;51.746;14.334;2023-01-23T05:40:40;148.93;;;36.43;;
39214;SDS011;24932;51.746;14.334;2023-01-23T05:44:40;157.43;;;36.53;;
39214;SDS011;24932;51.746;14.334;2023-01-23T05:48:40;141.07;;;36.57;;
39214;SDS011;24932;51.746;14.334;2023-01-23T05:52:41;157.13;;;38.83;;
39214;SDS011;24932;51.746;14.334;2023-01-23T05:56:40;161.87;;;38.33;;
39214;SDS011;24932;51.746;14.334;2023-01-23T06:00:41;120.23;;;34.7;;
39214;SDS011;24932;51.746;14.334;2023-01-23T06:04:41;141.07;;;36.13;;
39214;SDS011;24932;51.746;14.334;2023-01-23T06:08:40;150.37;;;36.93;;
39214;SDS011;24932;51.746;14.334;2023-01-23T06:12:40;144.07;;;35.07;;
39214;SDS011;24932;51.746;14.334;2023-01-23T06:16:40;132.37;;;37.73;;
39214;SDS011;24932;51.746;14.334;2023-01-23T06:20:40;150.0;;;38.93;;
39214;SDS011;24932;51.746;14.334;2023-01-23T06:24:40;145.57;;;38.43;;
39214;SDS011;24932;51.746;14.334;2023-01-23T06:28:40;129.03;;;36.03;;
39214;SDS011;24932;51.746;14.334;2023-01-23T06:32:40;146.13;;;38.33;;
39214;SDS011;24932;51.746;14.334;2023-01-23T06:36:40;137.6;;;39.2;;
39214;SDS011;24932;51.746;14.334;2023-01-23T06:40:42;143.43;;;36.87;;
39214;SDS011;24932;51.746;14.334;2023-01-23T06:44:40;142.87;;;39.1;;
39214;SDS011;24932;51.746;14.334;2023-01-23T06:48:40;139.2;;;37.33;;
39214;SDS011;24932;51.746;14.334;2023-01-23T06:52:39;121.73;;;38.87;;
39214;SDS011;24932;51.746;14.334;2023-01-23T06:56:40;130.03;;;37.87;;
39214;SDS011;24932;51.746;14.334;2023-01-23T07:00:41;144.1;;;37.47;;
39214;SDS011;24932;51.746;14.334;2023-01-23T07:04:39;136.23;;;36.87;;
39214;SDS011;24932;51.746;14.334;2023-01-23T07:08:40;142.7;;;39.17;;
39214;SDS011;24932;51.746;14.334;2023-01-23T07:12:41;124.9;;;38.77;;
39214;SDS011;24932;51.746;14.334;2023-01-23T07:16:40;140.77;;;38.33;;
39214;SDS011;24932;51.746;14.334;2023-01-23T07:20:42;144.0;;;41.53;;
39214;SDS011;24932;51.746;14.334;2023-01-23T07:24:40;137.13;;;41.83;;
39214;SDS011;24932;51.746;14.334;2023-01-23T07:28:40;118.53;;;37.57;;
39214;SDS011;24932;51.746;14.334;2023-01-23T07:32:39;147.6;;;41.53;;
39214;SDS011;24932;51.746;14.334;2023-01-23T07:36:40;140.17;;;39.6;;
39214;SDS011;24932;51.746;14.334;2023-01-23T07:40:40;136.53;;;37.7;;
39214;SDS011;24932;51.746;14.334;2023-01-23T07:44:40;116.47;;;36.93;;
39214;SDS011;24932;51.746;14.334;2023-01-23T07:48:40;138.33;;;41.63;;
39214;SDS011;24932;51.746;14.334;2023-01-23T07:52:41;118.4;;;38.67;;
39214;SDS011;24932;51.746;14.334;2023-01-23T07:56:40;128.93;;;40.27;;
39214;SDS011;24932;51.746;14.334;2023-01-23T08:00:40;122.27;;;36.0;;
39214;SDS011;24932;51.746;14.334;2023-01-23T08:04:41;123.27;;;40.1;;
39214;SDS011;24932;51.746;14.334;2023-01-23T08:08:40;122.13;;;39.83;;
39214;SDS011;24932;51.746;14.334;2023-01-23T08:12:40;117.43;;;34.5;;
39214;SDS011;24932;51.746;14.334;2023-01-23T08:16:40;122.83;;;35.77;;
39214;SDS011;24932;51.746;14.334;2023-01-23T08:20:40;123.5;;;35.33;;
39214;SDS011;24932;51.746;14.334;2023-01-23T08:24:40;114.0;;;37.57;;
39214;SDS011;24932;51.746;14.334;2023-01-23T08:28:40;116.13;;;34.27;;
39214;SDS011;24932;51.746;14.334;2023-01-23T08:32:40;109.3;;;38.0;;
39214;SDS011;24932;51.746;14.334;2023-01-23T08:36:41;115.5;;;35.47;;
39214;SDS011;24932;51.746;14.334;2023-01-23T08:40:40;109.03;;;35.83;;
39214;SDS011;24932;51.746;14.334;2023-01-23T08:44:40;109.13;;;37.2;;
39214;SDS011;24932;51.746;14.334;2023-01-23T08:48:40;110.3;;;37.9;;
39214;SDS011;24932;51.746;14.334;2023-01-23T08:52:41;111.27;;;35.73;;
39214;SDS011;24932;51.746;14.334;2023-01-23T08:56:40;110.63;;;36.83;;
39214;SDS011;24932;51.746;14.334;2023-01-23T09:00:41;103.2;;;35.93;;
39214;SDS011;24932;51.746;14.334;2023-01-23T09:04:40;100.53;;;35.9;;
39214;SDS011;24932;51.746;14.334;2023-01-23T09:08:39;106.47;;;35.0;;
39214;SDS011;24932;51.746;14.334;2023-01-23T09:12:40;105.2;;;35.0;;
39214;SDS011;24932;51.746;14.334;2023-01-23T09:16:40;101.17;;;35.8;;
39214;SDS011;24932;51.746;14.334;2023-01-23T09:20:40;98.77;;;32.83;;
39214;SDS011;24932;51.746;14.334;2023-01-23T09:24:40;82.03;;;30.9;;
39214;SDS011;24932;51.746;14.334;2023-01-23T09:28:41;95.23;;;32.93;;
39214;SDS011;24932;51.746;14.334;2023-01-23T09:32:40;79.33;;;30.9;;
39214;SDS011;24932;51.746;14.334;2023-01-23T09:36:43;85.47;;;32.27;;
39214;SDS011;24932;51.746;14.334;2023-01-23T09:40:43;90.9;;;31.83;;
39214;SDS011;24932;51.746;14.334;2023-01-23T09:44:41;90.93;;;33.73;;
39214;SDS011;24932;51.746;14.334;2023-01-23T09:48:42;80.63;;;32.17;;
39214;SDS011;24932;51.746;14.334;2023-01-23T09:52:41;70.67;;;29.47;;
39214;SDS011;24932;51.746;14.334;2023-01-23T09:56:42;83.9;;;33.1;;
39214;SDS011;24932;51.746;14.334;2023-01-23T10:00:40;70.73;;;30.63;;
39214;SDS011;24932;51.746;14.334;2023-01-23T10:04:40;77.73;;;30.4;;
39214;SDS011;24932;51.746;14.334;2023-01-23T10:08:41;87.47;;;32.43;;
39214;SDS011;24932;51.746;14.334;2023-01-23T10:12:43;71.9;;;29.4;;
39214;SDS011;24932;51.746;14.334;2023-01-23T10:16:54;68.87;;;29.73;;
39214;SDS011;24932;51.746;14.334;2023-01-23T10:20:42;77.3;;;30.7;;
39214;SDS011;24932;51.746;14.334;2023-01-23T10:24:42;71.13;;;27.57;;
39214;SDS011;24932;51.746;14.334;2023-01-23T10:28:41;68.97;;;29.97;;
39214;SDS011;24932;51.746;14.334;2023-01-23T10:32:42;67.27;;;26.43;;
39214;SDS011;24932;51.746;14.334;2023-01-23T10:36:59;72.2;;;28.93;;
39214;SDS011;24932;51.746;14.334;2023-01-23T10:40:40;70.87;;;30.47;;
39214;SDS011;24932;51.746;14.334;2023-01-23T10:44:40;71.8;;;30.87;;
39214;SDS011;24932;51.746;14.334;2023-01-23T10:48:41;69.87;;;27.77;;
39214;SDS011;24932;51.746;14.334;2023-01-23T10:52:41;68.0;;;27.93;;
39214;SDS011;24932;51.746;14.334;2023-01-23T10:56:45;65.47;;;27.57;;
39214;SDS011;24932;51.746;14.334;2023-01-23T11:00:44;76.8;;;28.97;;
39214;SDS011;24932;51.746;14.334;2023-01-23T11:04:41;71.7;;;29.3;;
39214;SDS011;24932;51.746;14.334;2023-01-23T11:08:42;76.27;;;29.53;;
39214;SDS011;24932;51.746;14.334;2023-01-23T11:12:45;73.7;;;29.53;;
39214;SDS011;24932;51.746;14.334;2023-01-23T11:16:41;62.33;;;27.23;;
39214;SDS011;24932;51.746;14.334;2023-01-23T11:20:40;65.07;;;26.13;;
39214;SDS011;24932;51.746;14.334;2023-01-23T11:24:41;60.53;;;27.77;;
39214;SDS011;24932;51.746;14.334;2023-01-23T11:28:45;62.17;;;25.87;;
39214;SDS011;24932;51.746;14.334;2023-01-23T11:32:41;63.7;;;26.7;;
39214;SDS011;24932;51.746;14.334;2023-01-23T11:36:41;62.2;;;27.13;;
39214;SDS011;24932;51.746;14.334;2023-01-23T11:40:40;62.77;;;25.97;;
39214;SDS011;24932;51.746;14.334;2023-01-23T11:44:46;60.67;;;25.03;;
39214;SDS011;24932;51.746;14.334;2023-01-23T11:48:46;61.23;;;25.43;;
39214;SDS011;24932;51.746;14.334;2023-01-23T11:52:45;58.4;;;25.87;;
39214;SDS011;24932;51.746;14.334;2023-01-23T11:56:44;60.43;;;26.6;;
39214;SDS011;24932;51.746;14.334;2023-01-23T12:00:41;60.53;;;24.67;;
39214;SDS011;24932;51.746;14.334;2023-01-23T12:04:45;50.4;;;23.17;;
39214;SDS011;24932;51.746;14.334;2023-01-23T12:08:42;50.03;;;23.33;;
39214;SDS011;24932;51.746;14.334;2023-01-23T12:12:46;48.2;;;21.97;;
39214;SDS011;24932;51.746;14.334;2023-01-23T12:16:45;59.77;;;25.23;;
39214;SDS011;24932;51.746;14.334;2023-01-23T12:20:43;60.53;;;26.03;;
39214;SDS011;24932;51.746;14.334;2023-01-23T12:24:44;59.87;;;28.77;;
39214;SDS011;24932;51.746;14.334;2023-01-23T12:29:22;66.77;;;27.53;;
39214;SDS011;24932;51.746;14.334;2023-01-23T12:32:43;60.4;;;25.9;;
39214;SDS011;24932;51.746;14.334;2023-01-23T12:37:10;61.5;;;28.53;;
39214;SDS011;24932;51.746;14.334;2023-01-23T12:40:40;66.57;;;28.43;;
39214;SDS011;24932;51.746;14.334;2023-01-23T12:44:41;57.9;;;26.57;;
39214;SDS011;24932;51.746;14.334;2023-01-23T12:48:42;60.37;;;28.73;;
39214;SDS011;24932;51.746;14.334;2023-01-23T12:52:41;69.4;;;28.13;;
39214;SDS011;24932;51.746;14.334;2023-01-23T12:56:40;60.9;;;27.6;;
39214;SDS011;24932;51.746;14.334;2023-01-23T13:00:43;53.63;;;25.13;;
39214;SDS011;24932;51.746;14.334;2023-01-23T13:04:45;55.17;;;26.4;;
39214;SDS011;24932;51.746;14.334;2023-01-23T13:09:02;56.73;;;26.57;;
39214;SDS011;24932;51.746;14.334;2023-01-23T13:12:41;59.9;;;25.1;;
39214;SDS011;24932;51.746;14.334;2023-01-23T13:16:44;65.87;;;28.2;;
39214;SDS011;24932;51.746;14.334;2023-01-23T13:20:51;58.03;;;24.73;;
39214;SDS011;24932;51.746;14.334;2023-01-23T13:24:44;58.43;;;25.13;;
39214;SDS011;24932;51.746;14.334;2023-01-23T13:28:46;58.9;;;26.9;;
39214;SDS011;24932;51.746;14.334;2023-01-23T13:32:41;52.23;;;25.7;;
39214;SDS011;24932;51.746;14.334;2023-01-23T13:36:40;50.33;;;23.03;;
39214;SDS011;24932;51.746;14.334;2023-01-23T13:40:41;49.67;;;22.77;;
39214;SDS011;24932;51.746;14.334;2023-01-23T13:45:47;53.2;;;23.63;;
39214;SDS011;24932;51.746;14.334;2023-01-23T14:20:41;54.67;;;25.43;;
39214;SDS011;24932;51.746;14.334;2023-01-23T14:24:41;53.23;;;24.43;;
39214;SDS011;24932;51.746;14.334;2023-01-23T14:28:49;54.63;;;24.07;;
39214;SDS011;24932;51.746;14.334;2023-01-23T14:32:41;53.97;;;21.6;;
39214;SDS011;24932;51.746;14.334;2023-01-23T14:36:41;49.27;;;23.37;;
39214;SDS011;24932;51.746;14.334;2023-01-23T14:40:51;50.47;;;24.67;;
39214;SDS011;24932;51.746;14.334;2023-01-23T14:44:41;49.97;;;23.3;;
39214;SDS011;24932;51.746;14.334;2023-01-23T14:48:41;46.83;;;23.0;;
39214;SDS011;24932;51.746;14.334;2023-01-23T14:52:41;50.37;;;23.8;;
39214;SDS011;24932;51.746;14.334;2023-01-23T14:56:40;48.97;;;25.43;;
39214;SDS011;24932;51.746;14.334;2023-01-23T15:00:40;50.87;;;24.2;;
39214;SDS011;24932;51.746;14.334;2023-01-23T15:04:40;48.87;;;23.03;;
39214;SDS011;24932;51.746;14.334;2023-01-23T15:08:41;51.0;;;25.5;;
39214;SDS011;24932;51.746;14.334;2023-01-23T15:12:45;54.13;;;23.63;;
39214;SDS011;24932;51.746;14.334;2023-01-23T15:16:40;58.4;;;25.43;;
39214;SDS011;24932;51.746;14.334;2023-01-23T15:20:40;56.07;;;24.67;;
39214;SDS011;24932;51.746;14.334;2023-01-23T15:24:41;52.33;;;24.53;;
39214;SDS011;24932;51.746;14.334;2023-01-23T15:28:47;52.17;;;25.43;;
39214;SDS011;24932;51.746;14.334;2023-01-23T15:32:39;52.13;;;24.13;;
39214;SDS011;24932;51.746;14.334;2023-01-23T15:36:44;56.4;;;24.97;;
39214;SDS011;24932;51.746;14.334;2023-01-23T15:40:40;61.87;;;26.0;;
39214;SDS011;24932;51.746;14.334;2023-01-23T15:44:41;56.47;;;25.5;;
39214;SDS011;24932;51.746;14.334;2023-01-23T15:48:41;53.8;;;25.97;;
39214;SDS011;24932;51.746;14.334;2023-01-23T15:52:47;57.57;;;26.0;;
39214;SDS011;24932;51.746;14.334;2023-01-23T15:56:41;53.77;;;23.77;;
39214;SDS011;24932;51.746;14.334;2023-01-23T16:00:40;62.8;;;25.83;;
39214;SDS011;24932;51.746;14.334;2023-01-23T16:04:41;64.63;;;28.97;;
39214;SDS011;24932;51.746;14.334;2023-01-23T16:08:40;62.33;;;26.97;;
39214;SDS011;24932;51.746;14.334;2023-01-23T16:12:39;61.6;;;26.0;;
39214;SDS011;24932;51.746;14.334;2023-01-23T16:16:40;53.03;;;25.13;;
39214;SDS011;24932;51.746;14.334;2023-01-23T16:20:41;55.8;;;26.97;;
39214;SDS011;24932;51.746;14.334;2023-01-23T16:24:40;59.13;;;27.23;;
39214;SDS011;24932;51.746;14.334;2023-01-23T16:28:40;54.63;;;25.33;;
39214;SDS011;24932;51.746;14.334;2023-01-23T16:32:41;59.23;;;25.47;;
39214;SDS011;24932;51.746;14.334;2023-01-23T16:36:40;60.77;;;28.0;;
39214;SDS011;24932;51.746;14.334;2023-01-23T16:40:40;58.1;;;26.93;;
39214;SDS011;24932;51.746;14.334;2023-01-23T16:44:41;52.37;;;24.93;;
39214;SDS011;24932;51.746;14.334;2023-01-23T16:48:40;58.7;;;26.0;;
39214;SDS011;24932;51.746;14.334;2023-01-23T16:52:41;55.47;;;25.53;;
39214;SDS011;24932;51.746;14.334;2023-01-23T16:56:40;63.53;;;25.87;;
39214;SDS011;24932;51.746;14.334;2023-01-23T17:00:41;57.87;;;26.83;;
39214;SDS011;24932;51.746;14.334;2023-01-23T17:04:40;59.07;;;27.33;;
39214;SDS011;24932;51.746;14.334;2023-01-23T17:08:41;57.63;;;26.43;;
39214;SDS011;24932;51.746;14.334;2023-01-23T17:12:40;59.23;;;27.03;;
39214;SDS011;24932;51.746;14.334;2023-01-23T17:16:40;63.8;;;26.67;;
39214;SDS011;24932;51.746;14.334;2023-01-23T17:20:40;52.87;;;24.7;;
39214;SDS011;24932;51.746;14.334;2023-01-23T17:24:40;59.67;;;26.2;;
39214;SDS011;24932;51.746;14.334;2023-01-23T17:28:40;62.53;;;25.97;;
39214;SDS011;24932;51.746;14.334;2023-01-23T17:32:41;58.73;;;25.93;;
39214;SDS011;24932;51.746;14.334;2023-01-23T17:36:40;52.9;;;24.83;;
39214;SDS011;24932;51.746;14.334;2023-01-23T17:40:40;60.1;;;25.4;;
39214;SDS011;24932;51.746;14.334;2023-01-23T17:44:40;58.4;;;24.87;;
39214;SDS011;24932;51.746;14.334;2023-01-23T17:48:40;50.77;;;22.83;;
39214;SDS011;24932;51.746;14.334;2023-01-23T17:52:40;53.03;;;25.23;;
39214;SDS011;24932;51.746;14.334;2023-01-23T17:56:40;60.0;;;25.03;;
39214;SDS011;24932;51.746;14.334;2023-01-23T18:00:41;53.07;;;23.33;;
39214;SDS011;24932;51.746;14.334;2023-01-23T18:04:41;56.9;;;25.03;;
39214;SDS011;24932;51.746;14.334;2023-01-23T18:08:40;54.97;;;23.97;;
39214;SDS011;24932;51.746;14.334;2023-01-23T18:12:43;57.53;;;26.47;;
39214;SDS011;24932;51.746;14.334;2023-01-23T18:16:41;54.17;;;24.5;;
39214;SDS011;24932;51.746;14.334;2023-01-23T18:20:41;61.9;;;25.07;;
39214;SDS011;24932;51.746;14.334;2023-01-23T18:24:40;60.53;;;25.37;;
39214;SDS011;24932;51.746;14.334;2023-01-23T18:28:41;52.47;;;25.3;;
39214;SDS011;24932;51.746;14.334;2023-01-23T18:32:43;51.37;;;24.13;;
39214;SDS011;24932;51.746;14.334;2023-01-23T18:36:45;58.1;;;24.47;;
39214;SDS011;24932;51.746;14.334;2023-01-23T18:40:41;56.93;;;26.2;;
39214;SDS011;24932;51.746;14.334;2023-01-23T18:44:41;59.7;;;24.93;;
39214;SDS011;24932;51.746;14.334;2023-01-23T18:48:41;59.83;;;25.17;;
39214;SDS011;24932;51.746;14.334;2023-01-23T18:52:42;58.57;;;26.27;;
39214;SDS011;24932;51.746;14.334;2023-01-23T18:56:41;61.87;;;25.13;;
39214;SDS011;24932;51.746;14.334;2023-01-23T19:00:43;55.2;;;24.33;;
39214;SDS011;24932;51.746;14.334;2023-01-23T19:04:42;60.63;;;25.23;;
39214;SDS011;24932;51.746;14.334;2023-01-23T19:08:40;57.63;;;26.0;;
39214;SDS011;24932;51.746;14.334;2023-01-23T19:12:42;63.53;;;25.97;;
39214;SDS011;24932;51.746;14.334;2023-01-23T19:16:41;59.27;;;28.1;;
39214;SDS011;24932;51.746;14.334;2023-01-23T19:20:41;61.53;;;24.93;;
39214;SDS011;24932;51.746;14.334;2023-01-23T19:24:40;59.63;;;23.33;;
39214;SDS011;24932;51.746;14.334;2023-01-23T19:28:40;60.4;;;26.93;;
39214;SDS011;24932;51.746;14.334;2023-01-23T19:32:44;62.23;;;24.7;;
39214;SDS011;24932;51.746;14.334;2023-01-23T19:36:40;65.07;;;27.13;;
39214;SDS011;24932;51.746;14.334;2023-01-23T19:40:40;61.3;;;26.0;;
39214;SDS011;24932;51.746;14.334;2023-01-23T19:44:41;62.63;;;27.07;;
39214;SDS011;24932;51.746;14.334;2023-01-23T19:48:40;56.83;;;25.7;;
39214;SDS011;24932;51.746;14.334;2023-01-23T19:52:40;58.63;;;25.77;;
39214;SDS011;24932;51.746;14.334;2023-01-23T19:56:40;51.97;;;23.7;;
39214;SDS011;24932;51.746;14.334;2023-01-23T20:00:41;55.4;;;24.07;;
39214;SDS011;24932;51.746;14.334;2023-01-23T20:04:40;53.63;;;25.8;;
39214;SDS011;24932;51.746;14.334;2023-01-23T20:08:40;56.37;;;23.1;;
39214;SDS011;24932;51.746;14.334;2023-01-23T20:12:41;59.2;;;25.67;;
39214;SDS011;24932;51.746;14.334;2023-01-23T20:16:40;56.93;;;24.13;;
39214;SDS011;24932;51.746;14.334;2023-01-23T20:20:41;52.63;;;22.97;;
39214;SDS011;24932;51.746;14.334;2023-01-23T20:24:40;54.83;;;23.13;;
39214;SDS011;24932;51.746;14.334;2023-01-23T20:28:41;53.07;;;22.2;;
39214;SDS011;24932;51.746;14.334;2023-01-23T20:32:40;49.17;;;23.23;;
39214;SDS011;24932;51.746;14.334;2023-01-23T20:36:40;50.2;;;23.27;;
39214;SDS011;24932;51.746;14.334;2023-01-23T20:40:40;48.37;;;23.47;;
39214;SDS011;24932;51.746;14.334;2023-01-23T20:44:42;53.1;;;22.27;;
39214;SDS011;24932;51.746;14.334;2023-01-23T20:48:41;54.87;;;23.17;;
39214;SDS011;24932;51.746;14.334;2023-01-23T20:52:40;49.97;;;23.57;;
39214;SDS011;24932;51.746;14.334;2023-01-23T20:56:40;51.83;;;25.07;;
39214;SDS011;24932;51.746;14.334;2023-01-23T21:00:41;49.73;;;22.47;;
39214;SDS011;24932;51.746;14.334;2023-01-23T21:04:39;50.37;;;23.13;;
39214;SDS011;24932;51.746;14.334;2023-01-23T21:08:40;53.07;;;24.2;;
39214;SDS011;24932;51.746;14.334;2023-01-23T21:12:40;44.43;;;21.9;;
39214;SDS011;24932;51.746;14.334;2023-01-23T21:16:40;45.27;;;20.7;;
39214;SDS011;24932;51.746;14.334;2023-01-23T21:20:41;50.97;;;21.43;;
39214;SDS011;24932;51.746;14.334;2023-01-23T21:24:40;53.87;;;24.83;;
39214;SDS011;24932;51.746;14.334;2023-01-23T21:28:41;49.77;;;23.47;;
39214;SDS011;24932;51.746;14.334;2023-01-23T21:32:40;52.73;;;23.0;;
39214;SDS011;24932;51.746;14.334;2023-01-23T21:36:41;51.57;;;23.13;;
39214;SDS011;24932;51.746;14.334;2023-01-23T21:40:40;50.63;;;22.53;;
39214;SDS011;24932;51.746;14.334;2023-01-23T21:44:40;51.83;;;23.4;;
39214;SDS011;24932;51.746;14.334;2023-01-23T21:48:40;46.23;;;23.5;;
39214;SDS011;24932;51.746;14.334;2023-01-23T21:52:40;48.97;;;23.57;;
39214;SDS011;24932;51.746;14.334;2023-01-23T21:56:40;54.27;;;22.33;;
39214;SDS011;24932;51.746;14.334;2023-01-23T22:00:40;53.77;;;23.13;;
39214;SDS011;24932;51.746;14.334;2023-01-23T22:04:40;50.63;;;22.17;;
39214;SDS011;24932;51.746;14.334;2023-01-23T22:08:40;47.87;;;23.2;;
39214;SDS011;24932;51.746;14.334;2023-01-23T22:12:41;49.4;;;24.63;;
39214;SDS011;24932;51.746;14.334;2023-01-23T22:16:49;56.43;;;25.63;;
39214;SDS011;24932;51.746;14.334;2023-01-23T22:20:40;59.63;;;25.87;;
39214;SDS011;24932;51.746;14.334;2023-01-23T22:24:40;49.77;;;24.43;;
39214;SDS011;24932;51.746;14.334;2023-01-23T22:28:40;55.97;;;24.63;;
39214;SDS011;24932;51.746;14.334;2023-01-23T22:32:40;56.1;;;24.53;;
39214;SDS011;24932;51.746;14.334;2023-01-23T22:36:40;66.57;;;25.03;;
39214;SDS011;24932;51.746;14.334;2023-01-23T22:40:40;56.03;;;25.33;;
39214;SDS011;24932;51.746;14.334;2023-01-23T22:44:40;66.03;;;25.7;;
39214;SDS011;24932;51.746;14.334;2023-01-23T22:48:40;56.3;;;23.67;;
39214;SDS011;24932;51.746;14.334;2023-01-23T22:52:40;57.73;;;25.5;;
39214;SDS011;24932;51.746;14.334;2023-01-23T22:56:40;58.7;;;24.5;;
39214;SDS011;24932;51.746;14.334;2023-01-23T23:00:41;58.63;;;24.5;;
39214;SDS011;24932;51.746;14.334;2023-01-23T23:04:40;56.77;;;25.03;;
39214;SDS011;24932;51.746;14.334;2023-01-23T23:08:40;55.5;;;24.87;;
39214;SDS011;24932;51.746;14.334;2023-01-23T23:12:40;57.63;;;25.9;;
39214;SDS011;24932;51.746;14.334;2023-01-23T23:16:40;58.97;;;25.8;;
39214;SDS011;24932;51.746;14.334;2023-01-23T23:20:41;63.8;;;27.07;;
39214;SDS011;24932;51.746;14.334;2023-01-23T23:24:40;59.83;;;25.43;;
39214;SDS011;24932;51.746;14.334;2023-01-23T23:28:40;65.1;;;27.8;;
39214;SDS011;24932;51.746;14.334;2023-01-23T23:32:41;61.6;;;24.93;;
39214;SDS011;24932;51.746;14.334;2023-01-23T23:36:41;67.53;;;25.3;;